Time;durP1;ratioP1;P1;durP2;ratioP2;P2;SDS_P1;SDS_P2;PMS_P1;PMS_P2;Temp;Humidity;BMP_temperature;BMP_pressure;BME280_temperature;BME280_humidity;BME280_pressure;Samples;Min_cycle;Max_cycle;Signal;HPM_P1;HPM_P2
2023/08/11 00:02:23;;;;;;;;;8.50;8.50;;;;;23.88;64.89;101483.63;4961717;28;45446;-71
2023/08/11 00:04:50;;;;;;;;;7.50;7.50;;;;;23.89;65.08;101479.03;4959103;28;45406;-70
2023/08/11 00:07:15;;;;;;;;;10.00;10.00;;;;;23.88;65.44;101477.31;4958876;28;45259;-70
2023/08/11 00:09:41;;;;;;;;;10.50;10.25;;;;;23.84;65.00;101474.81;4966889;28;45390;-70
2023/08/11 00:12:07;;;;;;;;;8.00;7.25;;;;;23.84;65.35;101480.28;4976345;28;46061;-70
2023/08/11 00:14:32;;;;;;;;;8.25;8.25;;;;;23.79;65.41;101459.75;4968851;28;45296;-70
2023/08/11 00:16:58;;;;;;;;;10.00;10.00;;;;;23.79;65.34;101460.66;4962032;28;45323;-70
2023/08/11 00:19:23;;;;;;;;;7.00;7.00;;;;;23.77;64.97;101459.91;4978437;28;45394;-71
2023/08/11 00:21:49;;;;;;;;;9.25;7.50;;;;;23.79;65.51;101468.81;4976922;28;47242;-70
2023/08/11 00:24:14;;;;;;;;;8.25;7.00;;;;;23.77;65.21;101459.00;4978205;28;45341;-70
2023/08/11 00:26:39;;;;;;;;;10.75;10.75;;;;;23.79;65.87;101463.38;4978493;28;45257;-70
2023/08/11 00:29:05;;;;;;;;;7.50;7.25;;;;;23.82;65.61;101475.91;4978437;28;45373;-70
2023/08/11 00:31:30;;;;;;;;;8.00;8.00;;;;;23.81;65.63;101480.47;4978040;28;45394;-70
2023/08/11 00:33:56;;;;;;;;;9.00;9.00;;;;;23.71;65.27;101470.41;5006569;28;45505;-70
2023/08/11 00:36:22;;;;;;;;;9.00;9.00;;;;;23.85;65.05;101487.44;4981428;28;45567;-70
2023/08/11 00:38:47;;;;;;;;;8.25;7.00;;;;;23.77;65.55;101480.81;4966512;28;45401;-71
2023/08/11 00:41:16;;;;;;;;;5.50;5.50;;;;;23.68;65.20;101475.09;4973605;28;46658;-70
2023/08/11 00:43:41;;;;;;;;;9.75;8.75;;;;;23.73;65.11;101471.16;4958702;28;45522;-70
2023/08/11 00:46:14;;;;;;;;;7.50;6.00;;;;;23.67;65.33;101462.47;4973594;28;45348;-70
2023/08/11 00:48:43;;;;;;;;;8.00;7.25;;;;;23.68;65.48;101466.91;4976735;28;45973;-71
2023/08/11 00:51:13;;;;;;;;;6.50;5.75;;;;;23.80;65.75;101483.31;4959951;28;45596;-71
2023/08/11 00:53:38;;;;;;;;;7.25;7.00;;;;;23.62;65.38;101456.50;4958241;28;45444;-70
2023/08/11 00:56:04;;;;;;;;;9.25;7.25;;;;;23.75;65.78;101478.22;4958478;28;45303;-70
2023/08/11 00:58:31;;;;;;;;;6.75;6.75;;;;;23.67;65.48;101470.63;4968957;28;45847;-70
2023/08/11 01:00:57;;;;;;;;;9.00;8.00;;;;;23.60;65.58;101453.00;4976069;28;46913;-70
2023/08/11 01:03:24;;;;;;;;;9.50;9.00;;;;;23.67;65.33;101476.09;4976494;28;45536;-70
2023/08/11 01:06:04;;;;;;;;;7.00;7.00;;;;;23.60;65.54;101461.16;4959468;28;45349;-70
2023/08/11 01:08:38;;;;;;;;;9.00;7.75;;;;;23.53;65.50;101448.16;4958185;28;45469;-70
2023/08/11 01:11:19;;;;;;;;;7.00;6.25;;;;;23.62;65.38;101467.41;4958385;28;45526;-70
2023/08/11 01:14:03;;;;;;;;;8.00;8.00;;;;;23.55;65.47;101451.63;4958229;28;45330;-70
2023/08/11 01:16:29;;;;;;;;;8.00;7.50;;;;;23.49;65.52;101459.28;4956963;28;45582;-70
2023/08/11 01:18:56;;;;;;;;;7.25;7.00;;;;;23.48;65.21;101456.66;4977210;28;45538;-70
2023/08/11 01:21:25;;;;;;;;;8.00;8.00;;;;;23.59;65.73;101477.63;4977216;28;46251;-70
2023/08/11 01:23:51;;;;;;;;;8.50;8.50;;;;;23.57;65.76;101487.78;4977492;28;45542;-70
2023/08/11 01:26:17;;;;;;;;;9.50;9.00;;;;;23.44;66.02;101461.47;4977710;28;45469;-70
2023/08/11 01:28:42;;;;;;;;;8.25;8.25;;;;;23.46;66.09;101472.25;4977673;28;45564;-71
2023/08/11 01:31:08;;;;;;;;;8.00;8.00;;;;;23.43;65.84;101465.19;4978643;27;47868;-71
2023/08/11 01:33:34;;;;;;;;;11.25;9.50;;;;;23.59;66.10;101496.72;4991503;28;45505;-70
2023/08/11 01:35:59;;;;;;;;;9.00;8.00;;;;;23.48;66.06;101483.91;4999885;28;45463;-70
2023/08/11 01:38:24;;;;;;;;;7.75;7.75;;;;;23.39;66.13;101477.31;4976485;28;45594;-70
2023/08/11 01:40:50;;;;;;;;;8.25;8.25;;;;;23.39;66.58;101482.75;4964851;28;46348;-70
2023/08/11 01:43:17;;;;;;;;;9.75;9.50;;;;;23.37;66.81;101489.28;4957936;28;45405;-70
2023/08/11 01:45:48;;;;;;;;;8.50;8.00;;;;;23.45;66.58;101506.78;4958065;28;45387;-70
2023/08/11 01:48:16;;;;;;;;;9.50;9.50;;;;;23.33;67.00;101490.50;4963216;28;46186;-70
2023/08/11 01:50:42;;;;;;;;;10.00;10.00;;;;;23.42;67.38;101509.78;4977232;28;45588;-70
2023/08/11 01:53:08;;;;;;;;;8.00;8.00;;;;;23.16;67.03;101468.13;4977121;28;45492;-70
2023/08/11 01:55:33;;;;;;;;;9.25;9.25;;;;;23.35;67.17;101504.88;4976073;28;45534;-70
2023/08/11 01:57:59;;;;;;;;;8.50;8.50;;;;;23.26;67.12;101501.84;4977243;28;45579;-70
2023/08/11 02:00:24;;;;;;;;;10.00;10.00;;;;;23.15;67.53;101495.47;4977114;28;46087;-70
2023/08/11 02:02:50;;;;;;;;;9.25;9.25;;;;;23.20;67.57;101501.44;4977141;28;45742;-70
2023/08/11 02:05:15;;;;;;;;;10.25;9.00;;;;;23.08;68.04;101473.25;4961363;28;45315;-70
2023/08/11 02:07:42;;;;;;;;;9.00;9.00;;;;;23.17;67.97;101490.78;4977068;28;45333;-70
2023/08/11 02:10:08;;;;;;;;;8.75;7.75;;;;;23.24;68.26;101506.56;4976157;28;47116;-70
2023/08/11 02:12:36;;;;;;;;;10.50;10.25;;;;;23.06;68.02;101481.53;4975481;28;45465;-70
2023/08/11 02:15:04;;;;;;;;;7.00;7.00;;;;;23.05;68.61;101474.31;4975839;28;45416;-71
2023/08/11 02:17:31;;;;;;;;;8.00;8.00;;;;;23.21;68.68;101501.31;4975360;28;45650;-70
2023/08/11 02:19:56;;;;;;;;;8.75;8.25;;;;;23.15;68.98;101487.28;4976736;28;46147;-71
2023/08/11 02:22:22;;;;;;;;;11.00;9.25;;;;;23.06;68.83;101481.53;4976727;28;45276;-70
2023/08/11 02:24:48;;;;;;;;;10.00;10.00;;;;;23.11;68.95;101492.09;4975651;28;45350;-71
2023/08/11 02:27:14;;;;;;;;;11.25;11.25;;;;;23.12;69.25;101499.28;4975495;28;45313;-70
2023/08/11 02:29:39;;;;;;;;;10.25;9.75;;;;;23.16;69.05;101503.53;4976594;28;45918;-70
2023/08/11 02:32:05;;;;;;;;;8.75;8.75;;;;;22.91;69.47;101467.16;4976809;28;45468;-71
2023/08/11 02:34:30;;;;;;;;;10.50;10.50;;;;;23.13;68.81;101507.31;5022769;28;45457;-71
2023/08/11 02:36:56;;;;;;;;;13.00;12.25;;;;;22.87;69.14;101462.94;4957101;28;45599;-70
2023/08/11 02:39:22;;;;;;;;;12.00;11.25;;;;;23.09;69.45;101496.81;4970903;28;47888;-70
2023/08/11 02:41:47;;;;;;;;;8.00;8.00;;;;;22.99;69.47;101480.22;4957329;28;45421;-70
2023/08/11 02:44:13;;;;;;;;;9.25;8.50;;;;;22.96;69.36;101480.44;4957221;28;45499;-70
2023/08/11 02:46:38;;;;;;;;;9.00;8.25;;;;;22.92;68.67;101474.38;4955977;28;45569;-70
2023/08/11 02:49:04;;;;;;;;;7.50;7.50;;;;;22.95;69.33;101475.97;4956909;28;45560;-70
2023/08/11 02:51:29;;;;;;;;;10.50;9.00;;;;;23.10;68.93;101503.97;4957080;28;45461;-70
2023/08/11 02:53:55;;;;;;;;;9.25;9.25;;;;;23.06;68.93;101497.00;4956895;28;45420;-70
2023/08/11 02:56:21;;;;;;;;;8.00;8.00;;;;;22.97;68.60;101481.31;4957030;28;45310;-70
2023/08/11 02:58:49;;;;;;;;;8.50;8.50;;;;;22.91;68.75;101482.63;4968696;28;47327;-70
2023/08/11 03:01:14;;;;;;;;;10.00;9.00;;;;;23.07;68.53;101504.19;4957018;28;45426;-71
2023/08/11 03:03:42;;;;;;;;;6.75;6.75;;;;;22.82;68.70;101473.31;4968649;28;45429;-71
2023/08/11 03:06:10;;;;;;;;;8.50;7.50;;;;;22.86;68.75;101472.09;4956769;28;45732;-70
2023/08/11 03:08:36;;;;;;;;;8.25;7.75;;;;;22.90;68.46;101480.88;4968316;28;47120;-70
2023/08/11 03:11:03;;;;;;;;;7.25;7.25;;;;;23.04;68.60;101510.72;4956723;28;45346;-70
2023/08/11 03:13:29;;;;;;;;;9.00;8.50;;;;;22.88;68.57;101482.84;4956609;28;45308;-70
2023/08/11 03:15:54;;;;;;;;;6.50;6.50;;;;;22.88;68.58;101488.31;4956775;28;45328;-70
2023/08/11 03:18:20;;;;;;;;;10.75;10.75;;;;;22.98;68.98;101504.84;4970667;28;45428;-71
2023/08/11 03:20:48;;;;;;;;;9.50;9.00;;;;;22.98;68.85;101504.84;4976124;28;45432;-70
2023/08/11 03:23:13;;;;;;;;;10.75;8.75;;;;;22.99;69.05;101509.28;4975815;28;45397;-71
2023/08/11 03:25:39;;;;;;;;;7.00;7.00;;;;;23.00;68.82;101514.63;4976240;28;45402;-71
2023/08/11 03:28:05;;;;;;;;;7.25;7.25;;;;;22.97;68.86;101508.53;4975906;28;45568;-70
2023/08/11 03:30:30;;;;;;;;;9.25;8.75;;;;;22.85;68.83;101488.53;4976084;28;45306;-70
2023/08/11 03:32:55;;;;;;;;;8.00;8.00;;;;;22.90;68.46;101502.66;4974701;28;45472;-70
2023/08/11 03:35:22;;;;;;;;;9.00;8.25;;;;;22.88;69.24;101500.06;5014339;28;45508;-71
2023/08/11 03:37:47;;;;;;;;;9.00;9.00;;;;;22.92;69.44;101503.41;4967812;28;47191;-71
2023/08/11 03:40:13;;;;;;;;;8.25;8.25;;;;;22.81;68.78;101487.88;4956528;28;45365;-71
2023/08/11 03:42:42;;;;;;;;;7.00;7.00;;;;;22.80;69.11;101491.56;4968145;28;45499;-71
2023/08/11 03:45:12;;;;;;;;;9.75;8.75;;;;;22.82;69.71;101483.28;4958047;28;45411;-70
2023/08/11 03:47:41;;;;;;;;;10.75;8.00;;;;;22.86;69.53;101495.72;4957760;28;46296;-70
2023/08/11 03:50:08;;;;;;;;;7.25;7.25;;;;;22.64;69.72;101455.59;4959451;28;45522;-70
2023/08/11 03:52:34;;;;;;;;;7.00;6.75;;;;;22.84;69.55;101492.25;4959188;28;45457;-71
2023/08/11 03:55:00;;;;;;;;;8.75;7.75;;;;;22.68;69.37;101468.84;4967777;28;45487;-71
2023/08/11 03:57:28;;;;;;;;;7.00;6.25;;;;;22.71;69.63;101475.91;4974027;28;47245;-71
2023/08/11 03:59:53;;;;;;;;;5.75;5.75;;;;;22.69;69.83;101469.72;4959282;28;45765;-70
2023/08/11 04:02:19;;;;;;;;;8.25;8.25;;;;;22.66;69.95;101473.53;4959127;28;45534;-70
2023/08/11 04:04:45;;;;;;;;;7.75;7.50;;;;;22.67;70.25;101468.94;4967628;28;45332;-70
2023/08/11 04:07:11;;;;;;;;;7.75;7.75;;;;;22.80;69.91;101494.28;4973808;28;48319;-70
2023/08/11 04:09:39;;;;;;;;;10.00;10.00;;;;;22.78;70.06;101488.09;4959211;28;45512;-70
2023/08/11 04:12:06;;;;;;;;;8.50;7.50;;;;;22.64;69.68;101471.91;4974034;28;45435;-70
2023/08/11 04:14:31;;;;;;;;;12.00;10.00;;;;;22.60;70.22;101464.94;4977576;28;45459;-70
2023/08/11 04:16:57;;;;;;;;;9.00;8.00;;;;;22.59;70.34;101466.78;4964711;28;45482;-70
2023/08/11 04:19:22;;;;;;;;;10.00;10.00;;;;;22.56;70.31;101462.44;4978500;28;45401;-70
2023/08/11 04:21:47;;;;;;;;;9.00;9.00;;;;;22.68;69.91;101478.84;4978326;28;45239;-70
2023/08/11 04:24:15;;;;;;;;;10.00;10.00;;;;;22.55;69.95;101455.25;4978383;28;45257;-70
2023/08/11 04:26:40;;;;;;;;;8.75;8.75;;;;;22.60;70.18;101464.94;4978195;28;45398;-70
2023/08/11 04:29:06;;;;;;;;;10.50;8.75;;;;;22.54;69.98;101452.66;4977067;28;45480;-70
2023/08/11 04:31:31;;;;;;;;;12.00;10.50;;;;;22.56;70.46;101462.44;4977077;28;45391;-71
2023/08/11 04:33:56;;;;;;;;;10.25;10.00;;;;;22.66;70.27;101481.69;5007184;28;45752;-71
2023/08/11 04:36:22;;;;;;;;;10.00;10.00;;;;;22.45;70.44;101448.72;4982819;27;46366;-71
2023/08/11 04:38:48;;;;;;;;;11.50;11.50;;;;;22.47;70.79;101454.03;4958559;28;45604;-71
2023/08/11 04:41:13;;;;;;;;;9.00;9.00;;;;;22.59;70.29;101474.94;4958696;28;45430;-70
2023/08/11 04:43:38;;;;;;;;;11.75;11.00;;;;;22.52;70.44;101474.53;4958733;28;45442;-70
2023/08/11 04:46:04;;;;;;;;;10.25;10.00;;;;;22.59;70.37;101480.41;4958489;28;45492;-70
2023/08/11 04:48:30;;;;;;;;;9.50;8.00;;;;;22.44;70.33;101465.19;4958719;28;45378;-71
2023/08/11 04:50:56;;;;;;;;;12.25;11.00;;;;;22.45;70.80;101465.03;4958680;28;45382;-70
2023/08/11 04:53:22;;;;;;;;;11.00;11.00;;;;;22.44;71.11;101476.91;4958359;28;45689;-70
2023/08/11 04:55:48;;;;;;;;;10.75;10.75;;;;;22.43;71.09;101469.72;4957831;28;46308;-71
2023/08/11 04:58:13;;;;;;;;;12.25;12.25;;;;;22.42;70.82;101469.81;4958333;28;45333;-70
2023/08/11 05:00:38;;;;;;;;;10.25;10.25;;;;;22.34;70.78;101451.34;4970600;28;45847;-70
2023/08/11 05:03:04;;;;;;;;;11.50;10.25;;;;;22.44;70.73;101473.34;4958314;28;45449;-70
2023/08/11 05:05:29;;;;;;;;;12.25;12.25;;;;;22.44;71.34;101467.91;4969971;28;46241;-70
2023/08/11 05:07:55;;;;;;;;;12.25;10.75;;;;;22.37;70.88;101453.84;4958250;28;45315;-70
2023/08/11 05:10:20;;;;;;;;;9.00;9.00;;;;;22.46;71.38;101482.25;4970347;28;45457;-71
2023/08/11 05:12:48;;;;;;;;;11.25;11.25;;;;;22.39;71.55;101465.50;4965315;28;45817;-70
2023/08/11 05:15:14;;;;;;;;;12.00;11.25;;;;;22.42;71.30;101473.44;4973387;28;46933;-70
2023/08/11 05:17:39;;;;;;;;;11.00;9.25;;;;;22.39;71.30;101450.03;4966951;28;45355;-70
2023/08/11 05:20:07;;;;;;;;;14.00;13.50;;;;;22.56;71.69;101486.91;4977723;28;45615;-70
2023/08/11 05:22:33;;;;;;;;;11.25;9.25;;;;;22.35;71.78;101459.41;4977434;28;45268;-71
2023/08/11 05:24:58;;;;;;;;;10.50;10.25;;;;;22.54;71.63;101488.00;4977450;28;45514;-70
2023/08/11 05:27:23;;;;;;;;;10.25;10.25;;;;;22.54;71.61;101493.47;4977695;28;45490;-70
2023/08/11 05:29:50;;;;;;;;;13.00;13.00;;;;;22.36;71.52;101454.81;4977583;28;45361;-70
2023/08/11 05:32:15;;;;;;;;;10.25;10.00;;;;;22.36;71.81;101471.16;4976257;28;45893;-70
2023/08/11 05:34:41;;;;;;;;;12.00;11.00;;;;;22.30;71.89;101455.25;5023057;28;48404;-70
2023/08/11 05:37:07;;;;;;;;;10.50;9.50;;;;;22.36;72.28;101473.88;4965280;28;45362;-70
2023/08/11 05:39:33;;;;;;;;;10.00;9.00;;;;;22.35;72.09;101469.38;4974227;28;45640;-70
2023/08/11 05:41:58;;;;;;;;;12.25;9.75;;;;;22.48;72.00;101502.91;4958057;28;45549;-70
2023/08/11 05:44:24;;;;;;;;;15.25;11.50;;;;;22.33;71.95;101482.22;4957797;28;45352;-70
2023/08/11 05:46:49;;;;;;;;;12.25;11.50;;;;;22.47;72.51;101501.19;4958002;28;45594;-70
2023/08/11 05:49:15;;;;;;;;;13.00;11.25;;;;;22.30;72.70;101477.00;4969629;28;45592;-71
2023/08/11 05:51:40;;;;;;;;;10.75;9.25;;;;;22.33;72.69;101482.22;4957871;28;45366;-70
2023/08/11 05:54:05;;;;;;;;;10.25;10.25;;;;;22.48;72.54;101507.47;4957658;28;46254;-71
2023/08/11 05:56:31;;;;;;;;;11.00;11.00;;;;;22.33;72.63;101490.41;4957841;28;45305;-71
2023/08/11 05:58:56;;;;;;;;;12.25;11.50;;;;;22.47;73.07;101509.34;4969431;28;45502;-70
2023/08/11 06:01:22;;;;;;;;;13.25;11.25;;;;;22.32;72.81;101497.69;4964848;28;45512;-70
2023/08/11 06:03:47;;;;;;;;;9.75;8.00;;;;;22.39;72.52;101511.72;4961944;28;45552;-70
2023/08/11 06:06:13;;;;;;;;;8.75;8.75;;;;;22.28;73.10;101496.16;4964630;28;45790;-71
2023/08/11 06:08:38;;;;;;;;;12.50;11.00;;;;;22.37;73.28;101510.97;4960849;28;45525;-70
2023/08/11 06:11:03;;;;;;;;;12.50;12.00;;;;;22.24;73.58;101497.31;4957795;28;45434;-70
2023/08/11 06:13:29;;;;;;;;;13.25;13.25;;;;;22.29;73.55;101505.19;4957180;28;45441;-71
2023/08/11 06:15:54;;;;;;;;;11.00;8.50;;;;;22.24;73.55;101494.59;4957634;28;45380;-70
2023/08/11 06:18:20;;;;;;;;;11.00;11.00;;;;;22.13;73.98;101472.72;4970398;28;45322;-70
2023/08/11 06:20:45;;;;;;;;;10.25;10.25;;;;;22.16;73.60;101483.38;4977178;28;45400;-71
2023/08/11 06:23:12;;;;;;;;;11.25;11.25;;;;;22.28;73.70;101496.16;4976541;28;46437;-70
2023/08/11 06:25:37;;;;;;;;;10.00;10.00;;;;;22.23;73.61;101483.84;4977061;28;45504;-70
2023/08/11 06:28:03;;;;;;;;;9.00;9.00;;;;;22.30;74.13;101499.66;4976924;28;45438;-71
2023/08/11 06:30:30;;;;;;;;;9.75;9.75;;;;;22.34;74.18;101508.47;4977015;28;45415;-70
2023/08/11 06:32:55;;;;;;;;;11.00;10.25;;;;;22.28;73.84;101501.59;4976676;28;45473;-70
2023/08/11 06:35:22;;;;;;;;;11.00;10.00;;;;;22.39;74.27;101517.16;5017327;28;45348;-70
2023/08/11 06:37:47;;;;;;;;;9.50;8.00;;;;;22.28;74.27;101496.16;4957124;28;45308;-70
2023/08/11 06:40:13;;;;;;;;;9.75;9.75;;;;;22.39;74.11;101523.47;4964167;28;45524;-70
2023/08/11 06:42:39;;;;;;;;;10.75;10.75;;;;;22.31;74.65;101503.22;4961944;28;45979;-71
2023/08/11 06:45:05;;;;;;;;;9.75;9.50;;;;;22.35;74.41;101504.75;4957298;28;45551;-70
2023/08/11 06:47:31;;;;;;;;;13.25;10.75;;;;;22.49;74.35;101531.88;4957080;28;45577;-70
2023/08/11 06:49:57;;;;;;;;;7.75;7.75;;;;;22.35;74.30;101504.75;4957161;28;45393;-70
2023/08/11 06:52:23;;;;;;;;;9.25;9.25;;;;;22.37;75.04;101508.25;4956702;28;45395;-70
2023/08/11 06:54:49;;;;;;;;;7.00;7.00;;;;;22.44;74.63;101517.72;4957072;28;45394;-70
2023/08/11 06:57:14;;;;;;;;;11.50;9.00;;;;;22.56;74.75;101538.59;4968732;28;45411;-71
2023/08/11 06:59:40;;;;;;;;;8.75;8.75;;;;;22.48;74.43;101530.09;4957025;28;45686;-70
2023/08/11 07:02:06;;;;;;;;;8.25;8.00;;;;;22.44;75.31;101520.44;4956765;28;45509;-70
2023/08/11 07:04:31;;;;;;;;;10.00;10.00;;;;;22.46;74.88;101517.63;4963359;28;45273;-70
2023/08/11 07:06:56;;;;;;;;;8.00;8.00;;;;;22.50;75.20;101522.72;4973921;28;45545;-70
2023/08/11 07:09:22;;;;;;;;;10.00;9.25;;;;;22.54;74.82;101518.81;4956938;28;45325;-71
2023/08/11 07:11:47;;;;;;;;;9.50;9.50;;;;;22.71;75.85;101543.94;4956303;28;45395;-70
2023/08/11 07:14:12;;;;;;;;;10.25;9.50;;;;;22.57;75.69;101513.16;4964084;28;45396;-70
2023/08/11 07:16:38;;;;;;;;;8.75;8.75;;;;;22.64;75.32;101526.34;4963400;28;45367;-70
2023/08/11 07:19:03;;;;;;;;;10.00;8.25;;;;;22.67;75.24;101528.81;4975111;28;45322;-70
2023/08/11 07:21:28;;;;;;;;;9.00;8.75;;;;;22.65;75.88;101533.50;4978151;28;47488;-71
2023/08/11 07:23:54;;;;;;;;;7.50;7.50;;;;;22.76;76.28;101549.94;4979084;28;45499;-71
2023/08/11 07:26:19;;;;;;;;;5.00;5.00;;;;;22.93;76.40;101574.09;4977902;28;45383;-70
2023/08/11 07:28:45;;;;;;;;;9.00;9.00;;;;;22.84;75.98;101552.13;4979299;28;45306;-70
2023/08/11 07:31:10;;;;;;;;;11.00;9.75;;;;;22.82;75.79;101554.06;4978955;28;46648;-70
2023/08/11 07:33:36;;;;;;;;;7.00;7.00;;;;;22.79;76.18;101540.66;4994601;28;45492;-70
2023/08/11 07:36:01;;;;;;;;;8.50;7.25;;;;;22.83;76.26;101545.78;5001028;28;45421;-71
2023/08/11 07:38:26;;;;;;;;;7.75;7.00;;;;;22.97;76.22;101563.88;4958011;28;45541;-70
2023/08/11 07:40:52;;;;;;;;;10.50;9.50;;;;;23.03;76.07;101563.41;4971964;28;46192;-71
2023/08/11 07:43:17;;;;;;;;;11.25;9.75;;;;;23.02;75.94;101560.78;4978822;28;45421;-70
2023/08/11 07:45:43;;;;;;;;;9.25;9.25;;;;;23.03;75.94;101559.81;4979005;28;45417;-70
2023/08/11 07:48:08;;;;;;;;;11.00;10.00;;;;;23.11;76.15;101568.34;4978588;28;45397;-70
2023/08/11 07:50:37;;;;;;;;;8.00;8.00;;;;;23.18;76.50;101571.50;4978769;28;45436;-70
2023/08/11 07:53:03;;;;;;;;;9.75;9.00;;;;;23.34;76.30;101595.75;4978487;28;45483;-70
2023/08/11 07:55:29;;;;;;;;;5.50;4.75;;;;;23.35;75.78;101587.47;4978975;28;45443;-71
2023/08/11 07:57:54;;;;;;;;;8.50;8.00;;;;;23.25;75.86;101565.47;4977324;28;45516;-70
2023/08/11 08:00:24;;;;;;;;;7.50;7.50;;;;;23.38;76.66;101583.66;4977336;28;47313;-71
2023/08/11 08:02:50;;;;;;;;;8.50;8.00;;;;;23.25;76.31;101560.03;4978688;28;45327;-71
2023/08/11 08:05:15;;;;;;;;;9.50;9.00;;;;;23.44;76.64;101572.31;4978773;28;45275;-70
2023/08/11 08:07:41;;;;;;;;;10.75;10.75;;;;;23.49;76.87;101578.31;4978449;28;45650;-72
2023/08/11 08:10:08;;;;;;;;;10.75;10.00;;;;;23.45;77.02;101568.59;4978633;28;46524;-73
2023/08/11 08:12:37;;;;;;;;;9.75;9.75;;;;;23.69;77.04;101601.34;4978250;28;45460;-73
2023/08/11 08:15:05;;;;;;;;;9.75;9.50;;;;;23.70;76.78;101585.84;4977294;28;45504;-73
2023/08/11 08:17:31;;;;;;;;;12.75;10.00;;;;;23.70;75.96;101580.41;4976001;28;45303;-72
2023/08/11 08:19:56;;;;;;;;;9.25;9.25;;;;;23.90;76.13;101606.19;4978324;28;46485;-72
2023/08/11 08:22:22;;;;;;;;;10.25;10.25;;;;;23.90;75.62;101604.34;4976835;28;45380;-72
2023/08/11 08:24:48;;;;;;;;;12.25;12.00;;;;;23.85;75.83;101587.47;4978504;28;45310;-73
2023/08/11 08:27:14;;;;;;;;;15.25;12.25;;;;;23.82;75.76;101572.22;4978538;28;45485;-73
2023/08/11 08:29:40;;;;;;;;;10.50;8.75;;;;;24.00;75.22;101589.03;4976883;28;46669;-73
2023/08/11 08:32:05;;;;;;;;;12.25;12.25;;;;;23.93;74.90;101581.44;4967974;28;45370;-73
2023/08/11 08:34:30;;;;;;;;;11.00;11.00;;;;;24.03;75.31;101577.88;5019890;28;45849;-73
2023/08/11 08:36:56;;;;;;;;;11.75;10.75;;;;;24.05;75.22;101577.78;4958635;28;45375;-73
2023/08/11 08:39:21;;;;;;;;;12.25;11.50;;;;;24.04;74.32;101574.19;4970286;28;47978;-73
2023/08/11 08:41:50;;;;;;;;;10.50;10.50;;;;;24.22;74.50;101612.81;4958827;28;45394;-73
2023/08/11 08:44:17;;;;;;;;;10.75;10.25;;;;;24.12;75.06;101586.34;4958767;28;45333;-72
2023/08/11 08:46:43;;;;;;;;;13.50;11.50;;;;;24.16;74.85;101587.88;4965322;28;45293;-72
2023/08/11 08:49:23;;;;;;;;;14.25;11.75;;;;;24.02;74.48;101553.44;4973490;28;47030;-72
2023/08/11 08:51:49;;;;;;;;;12.00;12.00;;;;;24.23;74.69;101575.50;4958504;28;45382;-73
2023/08/11 08:54:14;;;;;;;;;11.00;10.00;;;;;24.36;74.55;101595.38;4958605;28;45450;-73
2023/08/11 08:56:40;;;;;;;;;12.25;11.25;;;;;24.32;74.56;101573.91;4958648;28;45551;-73
2023/08/11 08:59:06;;;;;;;;;11.25;11.25;;;;;24.36;74.38;101565.38;4958363;28;45387;-73
2023/08/11 09:01:33;;;;;;;;;12.25;9.00;;;;;24.55;74.91;101596.72;4958498;28;45482;-73
2023/08/11 09:03:59;;;;;;;;;10.75;9.75;;;;;24.57;74.04;101598.34;4958407;28;45371;-71
2023/08/11 09:06:26;;;;;;;;;9.00;9.00;;;;;24.55;73.87;101585.78;4958446;28;45268;-71
2023/08/11 09:08:52;;;;;;;;;11.25;10.50;;;;;24.42;73.67;101564.00;4958221;28;46454;-71
2023/08/11 09:11:18;;;;;;;;;10.00;10.00;;;;;24.58;73.23;101583.69;4958188;28;45500;-71
2023/08/11 09:13:47;;;;;;;;;13.25;12.00;;;;;24.70;73.88;101595.50;4958271;28;45379;-70
2023/08/11 09:16:14;;;;;;;;;11.00;11.00;;;;;24.75;73.62;101606.06;4967241;28;45579;-70
2023/08/11 09:18:40;;;;;;;;;6.50;6.00;;;;;24.73;72.82;101595.25;4958103;28;46143;-70
2023/08/11 09:21:06;;;;;;;;;12.00;12.00;;;;;24.59;72.19;101576.34;4969200;28;45595;-71
2023/08/11 09:23:35;;;;;;;;;8.00;8.00;;;;;24.58;72.88;101566.44;4960431;28;45402;-71
2023/08/11 09:26:01;;;;;;;;;11.00;11.00;;;;;24.70;72.56;101581.84;4958341;28;45517;-71
2023/08/11 09:28:27;;;;;;;;;11.00;10.00;;;;;24.87;72.31;101607.81;4957918;28;46598;-71
2023/08/11 09:30:53;;;;;;;;;12.00;10.75;;;;;24.78;71.79;101594.91;4958230;28;45384;-71
2023/08/11 09:33:21;;;;;;;;;11.00;10.25;;;;;24.80;71.67;101598.38;4962431;28;45509;-70
2023/08/11 09:35:47;;;;;;;;;11.25;10.25;;;;;24.76;71.83;101595.03;5011788;27;45473;-71
2023/08/11 09:38:12;;;;;;;;;10.00;10.00;;;;;24.82;72.51;101598.25;4957690;28;45418;-71
2023/08/11 09:40:37;;;;;;;;;10.75;10.75;;;;;24.88;71.43;101612.28;4967410;28;45516;-71
2023/08/11 09:43:03;;;;;;;;;9.00;9.00;;;;;24.91;72.03;101613.94;4972772;28;45478;-70
2023/08/11 09:45:30;;;;;;;;;11.75;11.75;;;;;24.89;71.60;101596.75;4958121;28;45523;-70
2023/08/11 09:47:55;;;;;;;;;8.50;8.00;;;;;25.01;71.27;101614.94;4974617;28;45449;-71
2023/08/11 09:50:24;;;;;;;;;9.00;9.00;;;;;25.01;71.03;101614.03;4977417;28;45248;-72
2023/08/11 09:52:51;;;;;;;;;10.25;10.25;;;;;25.01;71.43;101608.56;4977195;28;45357;-72
2023/08/11 09:55:18;;;;;;;;;9.25;9.25;;;;;25.03;70.48;101604.75;4977430;28;45496;-72
2023/08/11 09:57:44;;;;;;;;;10.25;10.00;;;;;25.04;70.64;101611.94;4977029;28;46313;-72
2023/08/11 10:00:14;;;;;;;;;10.50;10.50;;;;;25.18;71.23;101631.84;4977236;28;45352;-73
2023/08/11 10:02:49;;;;;;;;;10.00;9.75;;;;;25.14;70.57;101617.53;4977159;28;45393;-72
2023/08/11 10:05:17;;;;;;;;;9.25;8.25;;;;;25.26;71.17;101637.50;4975753;27;46245;-73
2023/08/11 10:07:44;;;;;;;;;9.00;8.00;;;;;25.23;71.15;101615.94;4976970;28;45456;-73
2023/08/11 10:10:16;;;;;;;;;9.00;9.00;;;;;25.28;71.65;101614.59;4975741;28;45673;-73
2023/08/11 10:12:47;;;;;;;;;6.75;6.75;;;;;25.36;71.18;101615.81;4976911;28;45374;-73
2023/08/11 10:15:16;;;;;;;;;8.75;8.25;;;;;25.44;70.16;101616.97;4977106;28;45342;-73
2023/08/11 10:17:42;;;;;;;;;8.75;8.75;;;;;25.45;70.22;101606.88;4974436;28;46433;-72
2023/08/11 10:20:08;;;;;;;;;9.75;8.25;;;;;25.54;69.40;101611.56;4976926;28;45410;-73
2023/08/11 10:22:33;;;;;;;;;7.50;6.50;;;;;25.54;69.13;101608.84;4975729;28;45508;-72
2023/08/11 10:25:04;;;;;;;;;8.75;8.75;;;;;25.54;69.73;101589.72;4977001;28;45417;-71
2023/08/11 10:27:30;;;;;;;;;7.00;7.00;;;;;25.72;68.88;101608.34;4976973;28;45278;-70
2023/08/11 10:29:56;;;;;;;;;8.25;7.00;;;;;25.62;69.62;101587.22;4976902;28;45540;-70
2023/08/11 10:32:23;;;;;;;;;5.75;5.75;;;;;25.60;69.69;101577.41;4976858;28;45397;-71
2023/08/11 10:34:49;;;;;;;;;10.00;9.75;;;;;25.80;69.45;101603.09;5021643;28;45354;-71
2023/08/11 10:37:15;;;;;;;;;6.25;5.50;;;;;25.80;69.65;101590.28;4965702;28;47508;-71
2023/08/11 10:39:40;;;;;;;;;9.50;9.50;;;;;25.86;68.89;101588.88;4960324;28;45463;-71
2023/08/11 10:42:12;;;;;;;;;8.00;7.00;;;;;25.92;68.91;101598.47;4957444;28;45257;-71
2023/08/11 10:44:43;;;;;;;;;6.50;6.50;;;;;25.80;68.97;101570.28;4957184;28;45460;-70
2023/08/11 10:47:09;;;;;;;;;10.00;8.25;;;;;25.96;67.58;101595.38;4957122;28;45451;-71
2023/08/11 10:49:40;;;;;;;;;8.75;8.00;;;;;26.10;67.70;101609.75;4973193;28;46212;-71
2023/08/11 10:52:05;;;;;;;;;6.00;6.00;;;;;26.01;67.12;101595.84;4965005;28;45363;-71
2023/08/11 10:54:32;;;;;;;;;8.00;8.00;;;;;26.14;67.92;101611.22;4957793;28;45352;-71
2023/08/11 10:57:01;;;;;;;;;8.00;8.00;;;;;26.05;67.25;101589.13;4959885;28;45489;-70
2023/08/11 10:59:29;;;;;;;;;6.50;6.50;;;;;26.09;67.52;101600.66;4977288;28;45402;-70
2023/08/11 11:01:55;;;;;;;;;7.75;7.75;;;;;26.10;66.81;101591.47;4966920;28;45526;-70
2023/08/11 11:04:29;;;;;;;;;7.00;6.00;;;;;26.21;67.30;101618.78;4959851;28;45363;-70
2023/08/11 11:06:54;;;;;;;;;7.25;7.25;;;;;26.11;67.51;101584.13;4971338;28;47265;-71
2023/08/11 11:09:20;;;;;;;;;7.50;7.50;;;;;26.37;66.72;101612.00;4960000;28;45692;-71
2023/08/11 11:11:46;;;;;;;;;9.50;9.50;;;;;26.28;66.60;101596.34;4959518;28;45468;-71
2023/08/11 11:14:12;;;;;;;;;10.00;8.25;;;;;26.28;66.18;101599.97;4959901;28;45505;-70
2023/08/11 11:16:38;;;;;;;;;7.00;7.00;;;;;26.40;66.89;101614.47;4969365;28;48603;-70